createdAt,value
2018-09-05T00:00:55.650Z,22.80
2018-09-05T00:03:30.129Z,23.27
2018-09-05T00:05:57.896Z,22.95
2018-09-05T00:08:32.237Z,23.67
2018-09-05T00:10:59.924Z,22.70
2018-09-05T00:13:27.613Z,23.07
2018-09-05T00:15:55.698Z,23.23
2018-09-05T00:18:23.408Z,20.30
2018-09-05T00:20:51.105Z,22.40
2018-09-05T00:23:18.859Z,23.47
2018-09-05T00:25:46.538Z,21.80
2018-09-05T00:28:14.261Z,20.87
2018-09-05T00:30:41.907Z,18.77
2018-09-05T00:33:16.223Z,23.30
2018-09-05T00:35:44.035Z,23.80
2018-09-05T00:38:18.760Z,23.27
2018-09-05T00:40:46.474Z,23.50
2018-09-05T00:43:14.219Z,24.60
2018-09-05T00:45:41.918Z,22.80
2018-09-05T00:48:09.611Z,24.13
2018-09-05T00:50:37.305Z,21.90
2018-09-05T00:53:05.045Z,24.50
2018-09-05T00:55:32.724Z,23.67
2018-09-05T00:58:00.464Z,22.20
2018-09-05T01:00:35.208Z,21.40
2018-09-05T01:03:09.683Z,24.93
2018-09-05T01:05:37.499Z,25.43
2018-09-05T01:08:11.558Z,23.70
2018-09-05T01:10:39.269Z,25.30
2018-09-05T01:13:06.949Z,26.27
2018-09-05T01:15:34.596Z,23.17
2018-09-05T01:18:08.187Z,23.57
2018-09-05T01:20:36.045Z,25.47
2018-09-05T01:23:10.356Z,26.40
2018-09-05T01:25:44.889Z,26.13
2018-09-05T01:28:19.653Z,26.83
2018-09-05T01:30:54.147Z,25.73
2018-09-05T01:33:21.813Z,24.43
2018-09-05T01:35:54.022Z,26.93
2018-09-05T01:38:21.745Z,26.23
2018-09-05T01:40:49.773Z,25.00
2018-09-05T01:43:24.084Z,28.07
2018-09-05T01:45:51.832Z,26.53
2018-09-05T01:48:26.364Z,26.77
2018-09-05T01:50:54.428Z,24.60
2018-09-05T01:53:22.083Z,27.40
2018-09-05T01:55:49.805Z,29.53
2018-09-05T01:58:24.252Z,29.13
2018-09-05T02:00:52.000Z,29.03
2018-09-05T02:03:19.754Z,29.03
2018-09-05T02:05:54.005Z,30.70
2018-09-05T02:08:28.509Z,28.40
2018-09-05T02:10:56.133Z,30.47
2018-09-05T02:13:23.900Z,30.93
2018-09-05T02:15:51.553Z,31.90
2018-09-05T02:18:19.400Z,28.57
2018-09-05T02:20:54.120Z,31.90
2018-09-05T02:23:22.343Z,29.63
2018-09-05T02:25:50.554Z,32.40
2018-09-05T02:28:24.584Z,33.20
2018-09-05T02:30:52.235Z,31.13
2018-09-05T02:33:19.996Z,33.30
2018-09-05T02:35:54.135Z,33.10
2018-09-05T02:38:21.826Z,35.03
2018-09-05T02:40:49.571Z,34.13
2018-09-05T02:43:29.310Z,32.47
2018-09-05T02:46:03.388Z,34.53
2018-09-05T02:48:31.254Z,32.40
2018-09-05T02:50:59.158Z,33.23
2018-09-05T02:53:26.920Z,29.47
2018-09-05T02:56:00.507Z,31.90
2018-09-05T02:58:28.265Z,29.07
2018-09-05T03:00:55.981Z,35.10
2018-09-05T03:03:23.631Z,32.77
2018-09-05T03:05:58.225Z,32.63
2018-09-05T03:08:32.338Z,28.97
2018-09-05T03:11:06.829Z,31.93
2018-09-05T03:13:34.585Z,32.23
2018-09-05T03:16:02.576Z,34.03
2018-09-05T03:18:36.895Z,33.57
2018-09-05T03:21:04.961Z,31.03
2018-09-05T03:23:32.737Z,32.37
2018-09-05T03:26:07.474Z,31.77
2018-09-05T03:28:41.928Z,35.13
2018-09-05T03:31:16.394Z,33.33
2018-09-05T03:33:50.787Z,33.27
2018-09-05T03:36:25.418Z,33.27
2018-09-05T03:38:59.855Z,33.77
2018-09-05T03:41:34.293Z,32.97
2018-09-05T03:44:08.967Z,32.60
2018-09-05T03:46:43.456Z,35.03
2018-09-05T03:49:11.147Z,33.43
2018-09-05T03:51:38.954Z,34.60
2018-09-05T03:54:06.865Z,30.37
2018-09-05T03:56:41.292Z,32.47
2018-09-05T03:59:15.760Z,32.97
2018-09-05T04:01:50.264Z,31.53
2018-09-05T04:04:24.861Z,30.67
2018-09-05T04:06:59.336Z,31.93
2018-09-05T04:09:33.851Z,31.83
2018-09-05T04:12:08.431Z,32.90
2018-09-05T04:14:42.929Z,34.17
2018-09-05T04:17:10.503Z,31.30
2018-09-05T04:19:38.196Z,31.90
2018-09-05T04:22:12.726Z,33.37
2018-09-05T04:24:47.239Z,34.90
2018-09-05T04:27:21.706Z,35.90
2018-09-05T04:29:56.297Z,34.60
2018-09-05T04:32:30.811Z,33.03
2018-09-05T04:35:04.748Z,33.80
2018-09-05T04:37:39.076Z,33.67
2018-09-05T04:40:13.751Z,29.50
2018-09-05T04:42:48.181Z,33.50
2018-09-05T04:45:22.764Z,31.73
2018-09-05T04:47:57.267Z,30.37
2018-09-05T04:50:31.740Z,32.60
2018-09-05T04:54:03.484Z,30.80
2018-09-05T04:56:31.241Z,30.60
2018-09-05T04:58:58.862Z,32.03
2018-09-05T05:01:26.551Z,32.30
2018-09-05T05:03:54.224Z,32.57
2018-09-05T05:06:21.880Z,29.50
2018-09-05T05:08:49.573Z,31.93
2018-09-05T05:11:17.262Z,26.43
2018-09-05T05:13:45.110Z,31.07
2018-09-05T05:16:12.752Z,30.17
2018-09-05T05:18:40.393Z,28.97
2018-09-05T05:21:08.178Z,31.60
2018-09-05T05:23:35.845Z,30.67
2018-09-05T05:26:03.495Z,29.07
2018-09-05T05:28:31.017Z,31.80
2018-09-05T05:30:58.803Z,31.23
2018-09-05T05:33:26.343Z,29.23
2018-09-05T05:35:54.072Z,25.70
2018-09-05T05:38:21.701Z,26.53
2018-09-05T05:40:49.649Z,26.53
2018-09-05T05:43:17.369Z,29.93
2018-09-05T05:45:45.056Z,30.73
2018-09-05T05:48:12.598Z,29.87
2018-09-05T05:50:40.425Z,25.60
2018-09-05T05:53:08.092Z,26.23
2018-09-05T05:55:35.915Z,26.33
2018-09-05T05:58:03.891Z,28.62
2018-09-05T06:00:31.411Z,26.33
2018-09-05T06:02:59.071Z,28.90
2018-09-05T06:05:26.699Z,29.15
2018-09-05T06:07:54.286Z,30.88
2018-09-05T06:10:25.881Z,29.70
2018-09-05T06:12:54.791Z,28.23
2018-09-05T06:15:22.623Z,27.32
2018-09-05T06:17:50.321Z,30.50
2018-09-05T06:20:17.884Z,29.32
2018-09-05T06:22:45.604Z,30.77
2018-09-05T06:25:13.244Z,30.27
2018-09-05T06:27:41.040Z,28.80
2018-09-05T06:30:08.701Z,29.80
2018-09-05T06:32:36.452Z,30.95
2018-09-05T06:35:04.223Z,31.68
2018-09-05T06:37:31.971Z,30.32
2018-09-05T06:39:59.599Z,28.70
2018-09-05T06:42:27.280Z,28.83
2018-09-05T06:44:54.948Z,29.77
2018-09-05T06:47:22.572Z,21.25
2018-09-05T06:49:50.276Z,29.67
2018-09-05T06:52:17.952Z,29.15
2018-09-05T06:54:45.720Z,25.85
2018-09-05T06:57:13.488Z,27.52
2018-09-05T06:59:41.144Z,26.20
2018-09-05T07:02:08.819Z,29.02
2018-09-05T07:04:36.569Z,26.82
2018-09-05T07:07:04.337Z,29.27
2018-09-05T07:09:31.921Z,29.07
2018-09-05T07:12:00.215Z,28.25
2018-09-05T07:14:27.845Z,28.40
2018-09-05T07:16:55.541Z,28.87
2018-09-05T07:19:23.331Z,29.05
2018-09-05T07:21:51.063Z,29.23
2018-09-05T07:24:18.732Z,25.57
2018-09-05T07:26:46.378Z,25.27
2018-09-05T07:29:15.502Z,27.27
2018-09-05T07:31:43.228Z,26.05
2018-09-05T07:34:10.996Z,24.75
2018-09-05T07:36:38.640Z,23.45
2018-09-05T07:39:08.072Z,23.25
2018-09-05T07:41:35.809Z,19.90
2018-09-05T07:44:03.837Z,22.70
2018-09-05T07:46:31.507Z,22.70
2018-09-05T07:48:59.204Z,21.55
2018-09-05T07:51:26.847Z,22.27
2018-09-05T07:53:54.784Z,20.80
2018-09-05T07:56:22.428Z,21.90
2018-09-05T07:58:50.037Z,20.92
2018-09-05T08:01:17.706Z,21.52
2018-09-05T08:03:45.417Z,21.20
2018-09-05T08:06:13.080Z,17.92
2018-09-05T08:08:40.598Z,19.23
2018-09-05T08:11:08.408Z,20.72
2018-09-05T08:13:36.171Z,20.70
2018-09-05T08:16:03.904Z,22.22
2018-09-05T08:18:31.576Z,22.73
2018-09-05T08:20:59.324Z,20.82
2018-09-05T08:23:27.086Z,21.05
2018-09-05T08:25:54.691Z,20.65
2018-09-05T08:28:22.468Z,22.17
2018-09-05T08:30:50.268Z,21.42
2018-09-05T08:33:18.274Z,19.17
2018-09-05T08:35:46.262Z,15.78
2018-09-05T08:38:13.924Z,20.97
2018-09-05T08:40:41.686Z,17.42
2018-09-05T08:43:09.444Z,20.95
2018-09-05T08:45:37.418Z,15.05
2018-09-05T08:48:05.051Z,18.80
2018-09-05T08:50:32.720Z,16.25
2018-09-05T08:53:00.602Z,17.27
2018-09-05T08:55:28.477Z,18.55
2018-09-05T08:57:56.117Z,19.87
2018-09-05T09:00:23.814Z,16.67
2018-09-05T09:02:51.495Z,17.05
2018-09-05T09:05:19.233Z,19.10
2018-09-05T09:07:47.020Z,17.37
2018-09-05T09:10:14.656Z,16.50
2018-09-05T09:12:42.366Z,18.00
2018-09-05T09:15:10.567Z,16.50
2018-09-05T09:17:38.210Z,16.00
2018-09-05T09:20:06.013Z,15.88
2018-09-05T09:22:33.735Z,17.42
2018-09-05T09:25:01.602Z,17.55
2018-09-05T09:27:30.505Z,17.52
2018-09-05T09:29:58.237Z,16.32
2018-09-05T09:32:25.981Z,17.98
2018-09-05T09:34:53.659Z,16.65
2018-09-05T09:37:21.451Z,17.12
2018-09-05T09:39:49.612Z,15.53
2018-09-05T09:42:17.903Z,15.15
2018-09-05T09:44:45.544Z,17.20
2018-09-05T09:47:13.218Z,20.37
2018-09-05T09:49:40.839Z,18.17
2018-09-05T09:52:14.201Z,19.05
2018-09-05T09:54:41.875Z,18.35
2018-09-05T09:57:09.492Z,19.52
2018-09-05T09:59:37.200Z,19.60
2018-09-05T10:02:10.549Z,18.80
2018-09-05T10:05:41.112Z,18.55
2018-09-05T10:08:10.922Z,19.10
2018-09-05T10:10:44.237Z,19.87
2018-09-05T10:13:17.219Z,20.75
2018-09-05T10:15:50.476Z,20.15
2018-09-05T10:18:23.741Z,20.65
2018-09-05T10:20:51.489Z,22.60
2018-09-05T10:23:19.262Z,21.35
2018-09-05T10:25:46.964Z,20.82
2018-09-05T10:28:14.615Z,21.87
2018-09-05T10:30:42.271Z,21.70
2018-09-05T10:33:09.900Z,19.80
2018-09-05T10:35:37.559Z,19.87
2018-09-05T10:38:05.212Z,17.67
2018-09-05T10:40:32.880Z,18.27
2018-09-05T10:43:00.694Z,19.57
2018-09-05T10:45:28.562Z,18.40
2018-09-05T10:47:56.203Z,17.35
2018-09-05T10:50:23.929Z,20.85
2018-09-05T10:52:51.649Z,19.00
2018-09-05T10:55:19.300Z,17.98
2018-09-05T10:57:47.005Z,17.32
2018-09-05T11:00:14.742Z,17.60
2018-09-05T11:02:42.417Z,18.70
2018-09-05T11:05:10.062Z,17.90
2018-09-05T11:07:37.724Z,16.23
2018-09-05T11:10:05.406Z,16.75
2018-09-05T11:12:33.085Z,16.75
2018-09-05T11:15:00.719Z,16.45
2018-09-05T11:17:28.353Z,14.80
2018-09-05T11:19:55.996Z,15.38
2018-09-05T11:22:23.673Z,17.00
2018-09-05T11:24:51.380Z,15.48
2018-09-05T11:27:19.005Z,17.17
2018-09-05T11:29:46.727Z,16.00
2018-09-05T11:32:14.234Z,15.40
2018-09-05T11:34:41.815Z,14.78
2018-09-05T11:37:09.475Z,16.87
2018-09-05T11:39:37.164Z,16.85
2018-09-05T11:42:04.806Z,16.37
2018-09-05T11:44:32.681Z,15.65
2018-09-05T11:47:00.375Z,16.62
2018-09-05T11:49:28.674Z,14.75
2018-09-05T11:51:56.989Z,15.32
2018-09-05T11:54:24.689Z,13.83
2018-09-05T11:56:52.460Z,14.78
2018-09-05T11:59:20.166Z,14.80
2018-09-05T12:01:47.870Z,14.43
2018-09-05T12:04:15.532Z,13.60
2018-09-05T12:06:43.262Z,13.18
2018-09-05T12:09:11.851Z,14.05
2018-09-05T12:11:39.682Z,13.00
2018-09-05T12:14:08.092Z,12.78
2018-09-05T12:16:36.333Z,13.60
2018-09-05T12:19:04.752Z,12.80
2018-09-05T12:21:32.377Z,12.95
2018-09-05T12:24:00.045Z,12.35
2018-09-05T12:26:27.735Z,12.80
2018-09-05T12:28:55.444Z,12.75
2018-09-05T12:31:23.113Z,12.43
2018-09-05T12:33:50.772Z,12.93
2018-09-05T12:36:19.572Z,12.58
2018-09-05T12:38:47.258Z,11.75
2018-09-05T12:41:14.886Z,12.70
2018-09-05T12:43:42.644Z,12.35
2018-09-05T12:46:10.267Z,11.95
2018-09-05T12:48:38.490Z,11.90
2018-09-05T12:51:06.180Z,12.07
2018-09-05T12:53:34.020Z,12.68
2018-09-05T12:56:01.700Z,12.18
2018-09-05T12:58:29.388Z,11.73
2018-09-05T13:00:57.141Z,12.95
2018-09-05T13:03:24.770Z,12.95
2018-09-05T13:05:52.472Z,12.25
2018-09-05T13:08:20.192Z,12.33
2018-09-05T13:10:47.884Z,12.35
2018-09-05T13:13:15.911Z,11.90
2018-09-05T13:15:43.716Z,12.23
2018-09-05T13:18:11.410Z,13.22
2018-09-05T13:20:39.076Z,12.85
2018-09-05T13:23:06.635Z,13.43
2018-09-05T13:25:34.403Z,13.48
2018-09-05T13:28:02.044Z,13.48
2018-09-05T13:30:29.714Z,13.13
2018-09-05T13:32:57.407Z,13.43
2018-09-05T13:35:25.181Z,13.05
2018-09-05T13:37:52.831Z,13.83
2018-09-05T13:40:20.835Z,12.93
2018-09-05T13:42:48.487Z,13.93
2018-09-05T13:45:16.335Z,13.00
2018-09-05T13:47:44.060Z,13.05
2018-09-05T13:50:11.815Z,11.78
2018-09-05T13:52:39.483Z,15.32
2018-09-05T13:55:07.485Z,14.80
2018-09-05T13:57:35.208Z,12.18
2018-09-05T14:00:03.077Z,13.18
2018-09-05T14:02:30.769Z,11.60
2018-09-05T14:04:58.441Z,13.78
2018-09-05T14:07:26.516Z,11.15
2018-09-05T14:09:54.207Z,13.13
2018-09-05T14:12:21.849Z,13.70
2018-09-05T14:14:49.495Z,13.18
2018-09-05T14:17:17.217Z,12.00
2018-09-05T14:19:44.932Z,13.22
2018-09-05T14:22:12.701Z,13.98
2018-09-05T14:24:40.473Z,13.48
2018-09-05T14:27:08.143Z,14.28
2018-09-05T14:29:35.820Z,15.72
2018-09-05T14:32:03.479Z,13.65
2018-09-05T14:34:31.153Z,15.03
2018-09-05T14:36:58.785Z,15.10
2018-09-05T14:39:26.421Z,15.20
2018-09-05T14:41:54.087Z,14.53
2018-09-05T14:44:21.720Z,13.55
2018-09-05T14:46:49.357Z,15.40
2018-09-05T14:49:17.028Z,14.33
2018-09-05T14:51:44.689Z,13.43
2018-09-05T14:54:12.412Z,12.78
2018-09-05T14:56:40.149Z,14.73
2018-09-05T14:59:07.808Z,12.75
2018-09-05T15:01:35.480Z,12.70
2018-09-05T15:04:03.236Z,12.68
2018-09-05T15:06:30.980Z,14.47
2018-09-05T15:08:58.470Z,13.15
2018-09-05T15:11:26.108Z,12.75
2018-09-05T15:13:53.681Z,11.80
2018-09-05T15:16:21.216Z,13.53
2018-09-05T15:18:48.781Z,12.88
2018-09-05T15:21:16.453Z,13.53
2018-09-05T15:23:45.097Z,11.85
2018-09-05T15:26:12.800Z,12.75
2018-09-05T15:28:40.416Z,12.93
2018-09-05T15:31:08.064Z,12.07
2018-09-05T15:33:35.737Z,12.95
2018-09-05T15:36:03.452Z,14.63
2018-09-05T15:38:31.173Z,15.30
2018-09-05T15:40:59.115Z,14.65
2018-09-05T15:43:26.645Z,15.30
2018-09-05T15:45:54.339Z,15.30
2018-09-05T15:48:22.071Z,13.65
2018-09-05T15:50:49.696Z,14.53
2018-09-05T15:53:17.420Z,12.73
2018-09-05T15:55:45.177Z,13.90
2018-09-05T15:58:12.913Z,12.35
2018-09-05T16:00:40.599Z,13.98
2018-09-05T16:03:08.217Z,13.35
2018-09-05T16:05:35.856Z,11.40
2018-09-05T16:08:03.451Z,12.33
2018-09-05T16:10:31.137Z,11.50
2018-09-05T16:12:58.858Z,12.88
2018-09-05T16:15:26.592Z,12.43
2018-09-05T16:17:54.115Z,12.58
2018-09-05T16:20:21.792Z,12.37
2018-09-05T16:22:49.465Z,11.43
2018-09-05T16:25:17.052Z,11.90
2018-09-05T16:27:44.739Z,11.90
2018-09-05T16:30:12.537Z,10.63
2018-09-05T16:32:40.273Z,9.83
2018-09-05T16:35:08.045Z,12.15
2018-09-05T16:37:35.717Z,10.53
2018-09-05T16:40:03.831Z,11.12
2018-09-05T16:42:31.468Z,10.30
2018-09-05T16:45:00.235Z,11.80
2018-09-05T16:47:28.562Z,10.65
2018-09-05T16:49:56.644Z,10.82
2018-09-05T16:52:28.334Z,9.93
2018-09-05T16:54:57.003Z,9.93
2018-09-05T16:57:25.011Z,11.05
2018-09-05T16:59:53.242Z,10.23
2018-09-05T17:02:21.627Z,10.80
2018-09-05T17:04:49.972Z,11.70
2018-09-05T17:07:18.449Z,10.15
2018-09-05T17:09:46.723Z,11.45
2018-09-05T17:12:14.428Z,10.10
2018-09-05T17:14:42.133Z,11.48
2018-09-05T17:17:10.018Z,11.45
2018-09-05T17:19:37.772Z,12.18
2018-09-05T17:22:05.517Z,10.43
2018-09-05T17:24:33.257Z,10.08
2018-09-05T17:27:00.894Z,10.85
2018-09-05T17:29:28.594Z,11.57
2018-09-05T17:31:56.251Z,10.38
2018-09-05T17:34:23.995Z,10.38
2018-09-05T17:36:51.591Z,10.35
2018-09-05T17:39:20.378Z,11.00
2018-09-05T17:41:48.124Z,10.00
2018-09-05T17:44:15.777Z,10.18
2018-09-05T17:46:43.408Z,10.35
2018-09-05T17:49:10.950Z,8.60
2018-09-05T17:51:38.612Z,10.15
2018-09-05T17:54:06.371Z,9.73
2018-09-05T17:56:34.049Z,10.00
2018-09-05T17:59:02.472Z,8.55
2018-09-05T18:01:30.398Z,10.00
2018-09-05T18:03:58.045Z,9.38
2018-09-05T18:06:25.817Z,10.32
2018-09-05T18:08:53.534Z,10.63
2018-09-05T18:11:21.253Z,9.90
2018-09-05T18:13:48.817Z,9.03
2018-09-05T18:16:16.505Z,8.38
2018-09-05T18:18:44.157Z,9.15
2018-09-05T18:21:11.934Z,9.23
2018-09-05T18:23:39.510Z,9.10
2018-09-05T18:26:07.501Z,8.50
2018-09-05T18:28:35.359Z,9.18
2018-09-05T18:31:03.325Z,8.03
2018-09-05T18:33:30.940Z,8.40
2018-09-05T18:35:58.704Z,8.00
2018-09-05T18:38:26.364Z,8.75
2018-09-05T18:40:54.044Z,8.28
2018-09-05T18:43:21.957Z,7.35
2018-09-05T18:45:49.711Z,8.48
2018-09-05T18:48:17.380Z,8.30
2018-09-05T18:50:45.500Z,7.95
2018-09-05T18:53:13.621Z,8.00
2018-09-05T18:55:42.864Z,6.97
2018-09-05T18:58:10.647Z,7.20
2018-09-05T19:00:38.671Z,7.30
2018-09-05T19:03:07.295Z,7.08
2018-09-05T19:05:35.237Z,7.55
2018-09-05T19:08:02.865Z,7.75
2018-09-05T19:10:30.529Z,7.62
2018-09-05T19:12:58.208Z,7.55
2018-09-05T19:15:26.180Z,6.58
2018-09-05T19:17:53.880Z,6.90
2018-09-05T19:20:21.695Z,6.67
2018-09-05T19:22:49.458Z,7.58
2018-09-05T19:25:17.148Z,7.42
2018-09-05T19:27:44.823Z,7.55
2018-09-05T19:30:12.565Z,7.85
2018-09-05T19:32:40.253Z,6.17
2018-09-05T19:35:07.936Z,7.78
2018-09-05T19:37:36.505Z,6.62
2018-09-05T19:40:04.412Z,7.17
2018-09-05T19:42:32.158Z,5.95
2018-09-05T19:44:59.807Z,7.28
2018-09-05T19:47:27.568Z,7.10
2018-09-05T19:49:55.239Z,6.65
2018-09-05T19:52:22.898Z,6.05
2018-09-05T19:54:50.429Z,6.42
2018-09-05T19:57:18.082Z,7.80
2018-09-05T19:59:45.880Z,7.42
2018-09-05T20:02:13.569Z,7.40
2018-09-05T20:04:41.486Z,7.00
2018-09-05T20:07:09.371Z,6.50
2018-09-05T20:09:37.049Z,7.67
2018-09-05T20:12:04.718Z,8.00
2018-09-05T20:14:32.837Z,6.45
2018-09-05T20:17:00.497Z,8.08
2018-09-05T20:19:28.118Z,7.30
2018-09-05T20:21:55.782Z,6.25
2018-09-05T20:24:23.442Z,7.20
2018-09-05T20:26:51.019Z,6.90
2018-09-05T20:29:18.896Z,5.50
2018-09-05T20:31:46.495Z,7.42
2018-09-05T20:34:14.381Z,6.60
2018-09-05T20:36:42.080Z,7.25
2018-09-05T20:39:11.013Z,7.67
2018-09-05T20:41:38.669Z,6.60
2018-09-05T20:44:06.304Z,7.22
2018-09-05T20:46:33.908Z,7.08
2018-09-05T20:49:01.548Z,6.47
2018-09-05T20:51:29.272Z,6.78
2018-09-05T20:53:56.898Z,7.03
2018-09-05T20:56:24.627Z,6.05
2018-09-05T20:58:52.284Z,6.33
2018-09-05T21:01:20.001Z,7.42
2018-09-05T21:03:47.776Z,6.62
2018-09-05T21:06:15.441Z,6.42
2018-09-05T21:08:43.107Z,7.28
2018-09-05T21:11:10.671Z,6.30
2018-09-05T21:13:38.367Z,7.10
2018-09-05T21:16:06.233Z,6.10
2018-09-05T21:18:33.932Z,6.33
2018-09-05T21:21:01.514Z,6.58
2018-09-05T21:23:30.779Z,7.10
2018-09-05T21:25:58.528Z,6.60
2018-09-05T21:28:26.103Z,6.25
2018-09-05T21:30:54.084Z,6.47
2018-09-05T21:33:21.762Z,6.47
2018-09-05T21:35:49.376Z,7.35
2018-09-05T21:38:17.052Z,6.92
2018-09-05T21:40:44.714Z,6.75
2018-09-05T21:43:12.366Z,6.92
2018-09-05T21:45:40.045Z,6.92
2018-09-05T21:48:07.757Z,6.87
2018-09-05T21:50:35.381Z,6.97
2018-09-05T21:53:03.514Z,6.50
2018-09-05T21:55:31.181Z,7.17
2018-09-05T21:57:58.820Z,7.40
2018-09-05T22:00:26.524Z,6.78
2018-09-05T22:02:54.479Z,6.45
2018-09-05T22:05:22.039Z,7.15
2018-09-05T22:07:49.680Z,6.97
2018-09-05T22:10:17.353Z,6.62
2018-09-05T22:12:44.980Z,7.53
2018-09-05T22:15:12.842Z,6.22
2018-09-05T22:17:40.509Z,6.35
2018-09-05T22:20:08.493Z,6.15
2018-09-05T22:22:36.127Z,6.50
2018-09-05T22:25:03.875Z,4.90
2018-09-05T22:27:31.413Z,6.95
2018-09-05T22:29:59.100Z,5.95
2018-09-05T22:32:26.793Z,6.45
2018-09-05T22:34:54.458Z,6.87
2018-09-05T22:37:22.863Z,5.83
2018-09-05T22:39:50.630Z,5.72
2018-09-05T22:42:18.269Z,5.90
2018-09-05T22:44:57.527Z,6.92
2018-09-05T22:47:36.599Z,5.17
2018-09-05T22:50:32.184Z,5.20
2018-09-05T22:55:23.798Z,6.80
2018-09-05T23:00:00.362Z,7.65
2018-09-05T23:04:47.189Z,7.25
2018-09-05T23:07:26.246Z,7.60
2018-09-05T23:10:05.158Z,6.90
2018-09-05T23:12:38.242Z,7.08
2018-09-05T23:15:17.258Z,7.85
2018-09-05T23:22:01.093Z,7.95
2018-09-05T23:24:28.756Z,8.28
2018-09-05T23:26:56.378Z,8.78
2018-09-05T23:29:24.053Z,8.38
2018-09-05T23:31:51.676Z,8.95
2018-09-05T23:34:19.324Z,7.87
2018-09-05T23:36:46.991Z,7.70
2018-09-05T23:39:14.678Z,7.60
2018-09-05T23:41:42.305Z,7.20
2018-09-05T23:44:09.958Z,6.72
2018-09-05T23:46:37.644Z,8.43
2018-09-05T23:49:05.466Z,7.28
2018-09-05T23:51:33.117Z,7.50
2018-09-05T23:54:00.673Z,5.75
2018-09-05T23:56:28.426Z,7.50
2018-09-05T23:58:56.137Z,7.72
